createdAt,value
2022-09-26T00:01:03.946Z,18.00
2022-09-26T00:04:16.013Z,18.01
2022-09-26T00:07:18.284Z,18.00
2022-09-26T00:10:20.242Z,17.93
2022-09-26T00:13:22.186Z,17.98
2022-09-26T00:16:24.460Z,17.98
2022-09-26T00:19:26.577Z,17.99
2022-09-26T00:22:28.888Z,17.81
2022-09-26T00:25:30.850Z,17.99
2022-09-26T00:28:33.051Z,17.98
2022-09-26T00:31:38.749Z,17.99
2022-09-26T00:34:40.731Z,17.98
2022-09-26T00:37:42.756Z,17.98
2022-09-26T00:40:46.935Z,17.95
2022-09-26T00:43:51.952Z,17.97
2022-09-26T00:46:53.972Z,17.94
2022-09-26T00:50:00.655Z,17.96
2022-09-26T00:53:08.431Z,17.95
2022-09-26T00:56:27.055Z,17.95
2022-09-26T00:59:35.715Z,17.93
2022-09-26T01:02:39.194Z,17.93
2022-09-26T01:05:41.871Z,17.95
2022-09-26T01:08:54.190Z,17.92
2022-09-26T01:11:57.032Z,17.92
2022-09-26T01:14:59.193Z,17.91
2022-09-26T01:18:01.256Z,17.89
2022-09-26T01:21:24.549Z,17.87
2022-09-26T01:24:50.605Z,17.83
2022-09-26T01:27:56.099Z,17.89
2022-09-26T01:31:03.772Z,17.83
2022-09-26T01:34:24.266Z,17.87
2022-09-26T01:37:32.039Z,17.85
2022-09-26T01:41:04.751Z,17.82
2022-09-26T01:44:28.292Z,17.83
2022-09-26T01:47:58.537Z,17.84
2022-09-26T01:51:09.368Z,17.85
2022-09-26T01:54:18.937Z,17.84
2022-09-26T01:57:28.851Z,17.88
2022-09-26T02:00:31.174Z,17.89
2022-09-26T02:03:39.960Z,17.89
2022-09-26T02:07:11.410Z,17.88
2022-09-26T02:10:21.097Z,17.84
2022-09-26T02:13:30.394Z,17.89
2022-09-26T02:16:43.415Z,17.87
2022-09-26T02:19:56.840Z,17.85
2022-09-26T02:23:00.083Z,17.90
2022-09-26T02:26:02.113Z,17.86
2022-09-26T02:29:05.370Z,17.86
2022-09-26T02:32:17.670Z,17.86
2022-09-26T02:35:38.897Z,17.85
2022-09-26T02:38:41.684Z,17.83
2022-09-26T02:42:25.073Z,17.84
2022-09-26T02:45:34.889Z,17.79
2022-09-26T02:49:08.734Z,17.82
2022-09-26T02:52:31.618Z,17.81
2022-09-26T02:56:12.043Z,17.84
2022-09-26T02:59:22.891Z,17.82
2022-09-26T03:02:43.647Z,17.76
2022-09-26T03:05:57.724Z,17.73
2022-09-26T03:09:01.598Z,17.75
2022-09-26T03:12:07.816Z,17.74
2022-09-26T03:15:10.974Z,17.63
2022-09-26T03:18:21.056Z,17.60
2022-09-26T03:21:23.673Z,17.64
2022-09-26T03:24:26.848Z,17.69
2022-09-26T03:27:32.163Z,17.73
2022-09-26T03:30:34.731Z,17.76
2022-09-26T03:33:55.120Z,17.77
2022-09-26T03:36:57.055Z,17.79
2022-09-26T03:39:59.025Z,17.77
2022-09-26T03:43:24.312Z,17.73
2022-09-26T03:46:28.627Z,17.81
2022-09-26T03:49:30.916Z,17.78
2022-09-26T03:52:32.994Z,17.79
2022-09-26T03:55:35.517Z,17.78
2022-09-26T03:58:38.176Z,17.79
2022-09-26T04:01:41.154Z,17.76
2022-09-26T04:04:43.376Z,17.77
2022-09-26T04:07:47.383Z,17.76
2022-09-26T04:10:49.489Z,17.79
2022-09-26T04:13:53.950Z,17.77
2022-09-26T04:16:59.472Z,17.79
2022-09-26T04:20:05.954Z,17.77
2022-09-26T04:23:09.539Z,17.79
2022-09-26T04:26:22.708Z,17.78
2022-09-26T04:29:27.288Z,17.80
2022-09-26T04:32:36.864Z,17.80
2022-09-26T04:35:50.701Z,17.82
2022-09-26T04:38:52.657Z,17.80
2022-09-26T04:41:55.599Z,17.78
2022-09-26T04:44:57.583Z,17.84
2022-09-26T04:47:59.712Z,17.77
2022-09-26T04:51:09.591Z,17.84
2022-09-26T04:54:12.224Z,17.85
2022-09-26T04:57:19.740Z,17.87
2022-09-26T05:00:23.404Z,17.85
2022-09-26T05:03:26.010Z,17.87
2022-09-26T05:06:28.139Z,17.83
2022-09-26T05:09:35.522Z,17.88
2022-09-26T05:12:45.251Z,17.88
2022-09-26T05:15:49.820Z,17.88
2022-09-26T05:18:52.674Z,17.81
2022-09-26T05:21:54.828Z,17.86
2022-09-26T05:25:15.667Z,17.86
2022-09-26T05:28:17.764Z,17.85
2022-09-26T05:31:20.825Z,17.85
2022-09-26T05:34:26.199Z,17.89
2022-09-26T05:37:28.675Z,17.91
2022-09-26T05:40:49.962Z,17.91
2022-09-26T05:43:53.917Z,17.75
2022-09-26T05:46:57.489Z,17.87
2022-09-26T05:50:01.201Z,17.89
2022-09-26T05:53:04.797Z,17.93
2022-09-26T05:56:12.743Z,17.95
2022-09-26T05:59:51.790Z,18.00
2022-09-26T06:03:04.231Z,17.85
2022-09-26T06:06:25.963Z,17.79
2022-09-26T06:09:37.336Z,17.97
2022-09-26T06:13:03.449Z,17.96
2022-09-26T06:16:12.221Z,18.01
2022-09-26T06:19:14.249Z,18.04
2022-09-26T06:22:16.973Z,18.04
2022-09-26T06:25:19.128Z,18.04
2022-09-26T06:28:21.141Z,18.04
2022-09-26T06:31:23.718Z,17.98
2022-09-26T06:35:00.962Z,18.06
2022-09-26T06:38:19.527Z,18.07
2022-09-26T06:41:21.583Z,18.08
2022-09-26T06:44:23.996Z,18.11
2022-09-26T06:47:44.378Z,18.09
2022-09-26T06:51:14.394Z,18.07
2022-09-26T06:54:16.509Z,17.98
2022-09-26T06:57:18.562Z,17.94
2022-09-26T07:00:20.517Z,17.90
2022-09-26T07:03:44.562Z,17.98
2022-09-26T07:07:06.118Z,18.09
2022-09-26T07:10:08.482Z,18.11
2022-09-26T07:13:17.277Z,18.12
2022-09-26T07:16:19.361Z,17.96
2022-09-26T07:19:53.943Z,18.08
2022-09-26T07:23:27.800Z,18.13
2022-09-26T07:26:30.582Z,18.14
2022-09-26T07:29:32.967Z,18.08
2022-09-26T07:32:39.808Z,18.16
2022-09-26T07:36:18.591Z,18.20
2022-09-26T07:39:21.920Z,18.16
2022-09-26T07:42:24.306Z,18.23
2022-09-26T07:45:45.087Z,18.27
2022-09-26T07:49:05.969Z,18.33
2022-09-26T07:52:29.293Z,18.37
2022-09-26T07:56:11.152Z,18.42
2022-09-26T07:59:35.798Z,18.48
2022-09-26T08:03:01.403Z,18.48
2022-09-26T08:06:05.080Z,18.51
2022-09-26T08:09:07.334Z,18.58
2022-09-26T08:12:48.422Z,18.51
2022-09-26T08:16:11.724Z,18.72
2022-09-26T08:19:18.102Z,18.76
2022-09-26T08:22:20.661Z,18.78
2022-09-26T08:25:26.512Z,18.79
2022-09-26T08:28:36.990Z,18.87
2022-09-26T08:31:40.065Z,18.92
2022-09-26T08:34:43.294Z,18.95
2022-09-26T08:38:15.308Z,19.01
2022-09-26T08:41:34.772Z,19.05
2022-09-26T08:45:37.607Z,19.10
2022-09-26T08:49:14.673Z,19.13
2022-09-26T08:52:41.430Z,19.15
2022-09-26T08:55:46.563Z,19.10
2022-09-26T08:58:52.466Z,19.09
2022-09-26T09:02:02.615Z,19.05
2022-09-26T09:05:33.093Z,19.06
2022-09-26T09:08:38.259Z,19.06
2022-09-26T09:12:09.312Z,19.07
2022-09-26T09:15:37.008Z,19.14
2022-09-26T09:18:59.280Z,19.19
2022-09-26T09:22:40.909Z,19.24
2022-09-26T09:29:49.723Z,19.31
2022-09-26T09:33:19.130Z,19.30
2022-09-26T09:36:41.882Z,19.43
2022-09-26T09:40:03.379Z,19.51
2022-09-26T09:43:26.617Z,19.57
2022-09-26T09:46:36.188Z,19.61
2022-09-26T09:49:38.333Z,19.65
2022-09-26T09:52:52.319Z,19.66
2022-09-26T09:56:08.796Z,19.71
2022-09-26T09:59:19.706Z,19.76
2022-09-26T10:03:11.420Z,19.62
2022-09-26T10:06:45.642Z,19.77
2022-09-26T10:09:41.292Z,19.77
2022-09-26T10:13:02.053Z,19.59
2022-09-26T10:16:23.981Z,19.75
2022-09-26T10:19:38.790Z,19.82
2022-09-26T10:22:45.581Z,19.80
2022-09-26T10:26:03.697Z,19.83
2022-09-26T10:29:30.414Z,19.88
2022-09-26T10:32:45.747Z,19.88
2022-09-26T10:36:09.828Z,19.88
2022-09-26T10:39:35.167Z,19.87
2022-09-26T10:42:38.361Z,19.87
2022-09-26T10:45:40.639Z,19.92
2022-09-26T10:49:03.385Z,19.98
2022-09-26T10:52:29.543Z,20.02
2022-09-26T10:55:41.905Z,19.92
2022-09-26T10:58:47.272Z,19.99
2022-09-26T11:01:56.128Z,19.93
2022-09-26T11:05:20.550Z,19.84
2022-09-26T11:08:51.668Z,19.93
2022-09-26T11:12:30.959Z,19.97
2022-09-26T11:15:42.947Z,19.99
2022-09-26T11:19:10.399Z,20.01
2022-09-26T11:22:34.485Z,20.05
2022-09-26T11:26:11.327Z,20.09
2022-09-26T11:29:34.773Z,20.08
2022-09-26T11:32:44.843Z,20.05
2022-09-26T11:36:07.520Z,20.03
2022-09-26T11:39:18.583Z,20.03
2022-09-26T11:42:28.905Z,20.01
2022-09-26T11:45:56.114Z,19.98
2022-09-26T11:49:38.657Z,19.84
2022-09-26T11:53:13.774Z,20.06
2022-09-26T11:56:42.141Z,20.15
2022-09-26T12:00:13.200Z,20.30
2022-09-26T12:03:33.449Z,20.35
2022-09-26T12:07:09.716Z,20.32
2022-09-26T12:10:25.261Z,20.31
2022-09-26T12:13:38.408Z,20.23
2022-09-26T12:17:04.794Z,20.13
2022-09-26T12:20:20.031Z,20.12
2022-09-26T12:23:40.234Z,20.19
2022-09-26T12:27:04.102Z,20.14
2022-09-26T12:30:15.608Z,20.17
2022-09-26T12:33:26.411Z,20.24
2022-09-26T12:36:47.496Z,20.24
2022-09-26T12:39:58.767Z,20.29
2022-09-26T12:43:19.462Z,20.31
2022-09-26T12:46:31.765Z,20.30
2022-09-26T12:49:58.554Z,20.36
2022-09-26T12:53:17.372Z,20.41
2022-09-26T12:56:30.232Z,20.45
2022-09-26T12:59:36.484Z,20.47
2022-09-26T13:03:09.893Z,20.49
2022-09-26T13:06:31.688Z,20.50
2022-09-26T13:09:33.770Z,20.49
2022-09-26T13:12:42.577Z,20.46
2022-09-26T13:16:16.742Z,20.42
2022-09-26T13:19:40.222Z,20.27
2022-09-26T13:22:42.536Z,20.49
2022-09-26T13:25:50.391Z,20.49
2022-09-26T13:29:17.157Z,20.49
2022-09-26T13:32:34.925Z,20.49
2022-09-26T13:35:41.147Z,20.49
2022-09-26T13:38:58.558Z,20.49
2022-09-26T13:42:10.193Z,20.41
2022-09-26T13:45:24.382Z,20.43
2022-09-26T13:48:39.674Z,20.44
2022-09-26T13:52:11.641Z,20.41
2022-09-26T13:55:19.428Z,20.40
2022-09-26T13:58:25.671Z,20.37
2022-09-26T14:01:28.260Z,20.36
2022-09-26T14:04:36.953Z,20.34
2022-09-26T14:07:57.384Z,20.35
2022-09-26T14:11:12.020Z,20.32
2022-09-26T14:14:18.033Z,20.28
2022-09-26T14:17:58.838Z,20.22
2022-09-26T14:21:09.817Z,20.17
2022-09-26T14:24:20.657Z,20.12
2022-09-26T14:27:37.668Z,20.09
2022-09-26T14:30:39.686Z,20.08
2022-09-26T14:33:44.189Z,19.90
2022-09-26T14:36:47.680Z,19.98
2022-09-26T14:40:07.943Z,19.97
2022-09-26T14:43:16.068Z,19.92
2022-09-26T14:46:25.704Z,19.90
2022-09-26T14:49:28.985Z,19.87
2022-09-26T14:52:33.025Z,19.81
2022-09-26T14:55:35.066Z,19.77
2022-09-26T14:58:37.343Z,19.77
2022-09-26T15:01:40.860Z,19.75
2022-09-26T15:04:45.770Z,19.72
2022-09-26T15:07:53.689Z,19.71
2022-09-26T15:11:00.607Z,19.67
2022-09-26T15:14:17.066Z,19.64
2022-09-26T15:17:27.709Z,19.60
2022-09-26T15:20:32.194Z,19.59
2022-09-26T15:23:46.544Z,19.55
2022-09-26T15:26:49.577Z,19.53
2022-09-26T15:29:58.130Z,19.47
2022-09-26T15:33:04.865Z,19.47
2022-09-26T15:36:06.937Z,19.44
2022-09-26T15:39:32.367Z,19.41
2022-09-26T15:42:52.828Z,19.35
2022-09-26T15:46:03.584Z,19.34
2022-09-26T15:49:15.890Z,19.29
2022-09-26T15:52:19.559Z,19.27
2022-09-26T15:56:08.967Z,19.25
2022-09-26T15:59:13.566Z,19.04
2022-09-26T16:02:36.619Z,19.17
2022-09-26T16:05:38.667Z,19.15
2022-09-26T16:08:42.633Z,19.13
2022-09-26T16:11:50.232Z,19.10
2022-09-26T16:15:00.434Z,19.09
2022-09-26T16:18:02.728Z,19.03
2022-09-26T16:21:22.766Z,19.00
2022-09-26T16:24:34.403Z,19.02
2022-09-26T16:27:36.325Z,19.01
2022-09-26T16:30:41.863Z,18.99
2022-09-26T16:33:51.165Z,18.96
2022-09-26T16:36:53.687Z,18.94
2022-09-26T16:39:59.510Z,18.92
2022-09-26T16:43:14.718Z,18.92
2022-09-26T16:46:18.625Z,18.92
2022-09-26T16:49:43.053Z,18.90
2022-09-26T16:52:46.055Z,18.88
2022-09-26T16:55:48.071Z,18.81
2022-09-26T16:58:53.942Z,18.85
2022-09-26T17:01:59.179Z,18.80
2022-09-26T17:05:01.520Z,18.80
2022-09-26T17:08:04.388Z,18.78
2022-09-26T17:11:14.458Z,18.79
2022-09-26T17:14:19.803Z,18.80
2022-09-26T17:17:25.437Z,18.77
2022-09-26T17:20:28.774Z,18.73
2022-09-26T17:23:41.994Z,18.75
2022-09-26T17:26:53.513Z,18.74
2022-09-26T17:30:00.508Z,18.69
2022-09-26T17:33:04.473Z,18.47
2022-09-26T17:36:10.930Z,18.50
2022-09-26T17:39:15.175Z,18.65
2022-09-26T17:42:17.449Z,18.48
2022-09-26T17:45:20.256Z,18.59
2022-09-26T17:48:27.902Z,18.60
2022-09-26T17:51:31.294Z,18.61
2022-09-26T17:54:42.509Z,18.56
2022-09-26T17:57:44.646Z,18.60
2022-09-26T18:00:49.413Z,18.57
2022-09-26T18:03:55.780Z,18.55
2022-09-26T18:07:02.294Z,18.57
2022-09-26T18:10:07.680Z,18.53
2022-09-26T18:13:13.821Z,18.54
2022-09-26T18:16:16.047Z,18.48
2022-09-26T18:19:20.940Z,18.49
2022-09-26T18:22:32.146Z,18.49
2022-09-26T18:25:37.366Z,18.48
2022-09-26T18:28:39.448Z,18.47
2022-09-26T18:31:45.301Z,18.42
2022-09-26T18:34:47.450Z,18.46
2022-09-26T18:37:49.679Z,18.50
2022-09-26T18:40:55.548Z,18.51
2022-09-26T18:44:00.879Z,18.50
2022-09-26T18:47:07.969Z,18.53
2022-09-26T18:50:21.884Z,18.50
2022-09-26T18:53:29.483Z,18.46
2022-09-26T18:56:50.242Z,18.48
2022-09-26T18:59:52.192Z,18.48
2022-09-26T19:02:54.446Z,18.45
2022-09-26T19:06:23.267Z,18.48
2022-09-26T19:09:27.254Z,18.41
2022-09-26T19:12:30.468Z,18.48
2022-09-26T19:15:32.569Z,18.49
2022-09-26T19:18:34.821Z,18.44
2022-09-26T19:21:43.539Z,18.47
2022-09-26T19:24:52.664Z,18.50
2022-09-26T19:27:54.769Z,18.47
2022-09-26T19:30:57.069Z,18.48
2022-09-26T19:33:59.131Z,18.45
2022-09-26T19:37:03.228Z,18.46
2022-09-26T19:40:17.364Z,18.44
2022-09-26T19:43:20.997Z,18.48
2022-09-26T19:46:27.629Z,18.46
2022-09-26T19:49:32.082Z,18.46
2022-09-26T19:52:34.078Z,18.46
2022-09-26T19:55:36.431Z,18.42
2022-09-26T19:58:38.485Z,18.42
2022-09-26T20:01:42.987Z,18.47
2022-09-26T20:04:45.635Z,18.49
2022-09-26T20:07:48.254Z,18.47
2022-09-26T20:10:50.934Z,18.49
2022-09-26T20:14:11.362Z,18.48
2022-09-26T20:17:22.468Z,18.50
2022-09-26T20:20:25.649Z,18.47
2022-09-26T20:23:27.917Z,18.48
2022-09-26T20:26:32.818Z,18.48
2022-09-26T20:29:55.667Z,18.48
2022-09-26T20:32:59.161Z,18.52
2022-09-26T20:36:05.257Z,18.42
2022-09-26T20:39:13.295Z,18.47
2022-09-26T20:42:18.850Z,18.38
2022-09-26T20:45:33.885Z,18.35
2022-09-26T20:48:37.062Z,18.39
2022-09-26T20:51:39.195Z,18.41
2022-09-26T20:54:42.443Z,18.43
2022-09-26T20:57:45.560Z,18.44
2022-09-26T21:00:48.393Z,18.44
2022-09-26T21:03:53.094Z,18.42
2022-09-26T21:06:55.909Z,18.29
2022-09-26T21:09:58.022Z,18.39
2022-09-26T21:13:01.170Z,18.41
2022-09-26T21:16:03.400Z,18.38
2022-09-26T21:19:06.833Z,18.33
2022-09-26T21:22:12.582Z,18.19
2022-09-26T21:25:20.577Z,18.29
2022-09-26T21:28:27.807Z,18.30
2022-09-26T21:31:35.522Z,18.25
2022-09-26T21:34:38.922Z,18.34
2022-09-26T21:37:43.008Z,18.34
2022-09-26T21:40:48.014Z,18.24
2022-09-26T21:43:58.146Z,18.20
2022-09-26T21:47:00.182Z,18.44
2022-09-26T21:50:05.689Z,18.45
2022-09-26T21:53:17.224Z,18.43
2022-09-26T21:56:27.290Z,18.23
2022-09-26T21:59:30.521Z,18.49
2022-09-26T22:02:32.728Z,18.46
2022-09-26T22:05:34.885Z,18.40
2022-09-26T22:08:37.857Z,18.49
2022-09-26T22:11:40.292Z,18.51
2022-09-26T22:14:42.624Z,18.42
2022-09-26T22:17:44.929Z,18.46
2022-09-26T22:20:46.917Z,18.35
2022-09-26T22:23:50.539Z,18.31
2022-09-26T22:26:52.755Z,18.28
2022-09-26T22:29:54.906Z,18.20
2022-09-26T22:32:57.523Z,18.26
2022-09-26T22:35:59.953Z,18.33
2022-09-26T22:39:02.112Z,18.38
2022-09-26T22:42:04.353Z,18.34
2022-09-26T22:45:06.914Z,18.42
2022-09-26T22:48:08.903Z,18.44
2022-09-26T22:51:11.053Z,18.37
2022-09-26T22:54:13.040Z,18.40
2022-09-26T22:57:16.665Z,18.43
2022-09-26T23:00:18.770Z,18.40
2022-09-26T23:03:20.735Z,18.37
2022-09-26T23:06:24.048Z,18.44
2022-09-26T23:09:26.158Z,18.45
2022-09-26T23:12:28.156Z,18.45
2022-09-26T23:15:30.877Z,18.44
2022-09-26T23:18:34.791Z,18.32
2022-09-26T23:21:36.787Z,18.47
2022-09-26T23:24:38.751Z,18.47
2022-09-26T23:27:40.720Z,18.49
2022-09-26T23:30:43.964Z,18.37
2022-09-26T23:33:46.495Z,18.43
2022-09-26T23:36:48.810Z,18.49
2022-09-26T23:39:50.798Z,18.47
2022-09-26T23:42:52.838Z,18.51
2022-09-26T23:45:55.314Z,18.50
2022-09-26T23:48:57.425Z,18.49
2022-09-26T23:51:59.547Z,18.47
2022-09-26T23:55:01.550Z,18.45
2022-09-26T23:58:04.033Z,18.45
